sensor_id;sensor_type;location;lat;lon;timestamp;P1;durP1;ratioP1;P2;durP2;ratioP2
12433;SDS011;6281;49.038;8.372;2024-02-04T00:01:05;5.00;;;2.97;;
12433;SDS011;6281;49.038;8.372;2024-02-04T00:03:31;10.40;;;5.93;;
12433;SDS011;6281;49.038;8.372;2024-02-04T00:06:01;7.23;;;5.10;;
12433;SDS011;6281;49.038;8.372;2024-02-04T00:08:31;6.80;;;4.47;;
12433;SDS011;6281;49.038;8.372;2024-02-04T00:10:58;6.57;;;4.87;;
12433;SDS011;6281;49.038;8.372;2024-02-04T00:13:27;4.47;;;3.30;;
12433;SDS011;6281;49.038;8.372;2024-02-04T00:15:54;6.60;;;4.30;;
12433;SDS011;6281;49.038;8.372;2024-02-04T00:18:23;6.30;;;4.63;;
12433;SDS011;6281;49.038;8.372;2024-02-04T00:20:50;6.07;;;3.67;;
12433;SDS011;6281;49.038;8.372;2024-02-04T00:23:17;5.37;;;3.80;;
12433;SDS011;6281;49.038;8.372;2024-02-04T00:25:44;6.23;;;3.97;;
12433;SDS011;6281;49.038;8.372;2024-02-04T00:28:11;4.90;;;3.33;;
12433;SDS011;6281;49.038;8.372;2024-02-04T00:30:40;7.50;;;4.30;;
12433;SDS011;6281;49.038;8.372;2024-02-04T00:33:06;4.00;;;3.27;;
12433;SDS011;6281;49.038;8.372;2024-02-04T00:35:33;3.23;;;2.67;;
12433;SDS011;6281;49.038;8.372;2024-02-04T00:38:00;5.57;;;3.80;;
12433;SDS011;6281;49.038;8.372;2024-02-04T00:40:28;3.97;;;3.17;;
12433;SDS011;6281;49.038;8.372;2024-02-04T00:42:55;4.27;;;3.80;;
12433;SDS011;6281;49.038;8.372;2024-02-04T00:45:23;2.47;;;1.90;;
12433;SDS011;6281;49.038;8.372;2024-02-04T00:47:51;5.63;;;3.87;;
12433;SDS011;6281;49.038;8.372;2024-02-04T00:50:18;4.87;;;3.73;;
12433;SDS011;6281;49.038;8.372;2024-02-04T00:52:45;4.30;;;3.20;;
12433;SDS011;6281;49.038;8.372;2024-02-04T00:55:12;4.30;;;3.53;;
12433;SDS011;6281;49.038;8.372;2024-02-04T00:57:39;3.50;;;2.50;;
12433;SDS011;6281;49.038;8.372;2024-02-04T01:00:07;3.60;;;2.53;;
12433;SDS011;6281;49.038;8.372;2024-02-04T01:02:34;3.90;;;3.17;;
12433;SDS011;6281;49.038;8.372;2024-02-04T01:05:03;4.63;;;3.30;;
12433;SDS011;6281;49.038;8.372;2024-02-04T01:07:30;4.93;;;3.90;;
12433;SDS011;6281;49.038;8.372;2024-02-04T01:09:57;5.00;;;3.67;;
12433;SDS011;6281;49.038;8.372;2024-02-04T01:12:24;4.17;;;3.10;;
12433;SDS011;6281;49.038;8.372;2024-02-04T01:14:51;4.77;;;3.70;;
12433;SDS011;6281;49.038;8.372;2024-02-04T01:17:18;2.67;;;2.43;;
12433;SDS011;6281;49.038;8.372;2024-02-04T01:19:45;2.73;;;1.83;;
12433;SDS011;6281;49.038;8.372;2024-02-04T01:22:13;4.17;;;3.20;;
12433;SDS011;6281;49.038;8.372;2024-02-04T01:24:40;2.80;;;2.33;;
12433;SDS011;6281;49.038;8.372;2024-02-04T01:27:07;4.20;;;3.07;;
12433;SDS011;6281;49.038;8.372;2024-02-04T01:29:34;4.33;;;2.90;;
12433;SDS011;6281;49.038;8.372;2024-02-04T01:32:01;3.77;;;2.77;;
12433;SDS011;6281;49.038;8.372;2024-02-04T01:34:28;4.47;;;3.00;;
12433;SDS011;6281;49.038;8.372;2024-02-04T01:36:55;4.87;;;3.03;;
12433;SDS011;6281;49.038;8.372;2024-02-04T01:39:24;4.67;;;3.47;;
12433;SDS011;6281;49.038;8.372;2024-02-04T01:41:51;4.23;;;3.27;;
12433;SDS011;6281;49.038;8.372;2024-02-04T01:44:18;3.97;;;2.50;;
12433;SDS011;6281;49.038;8.372;2024-02-04T01:46:47;4.53;;;2.60;;
12433;SDS011;6281;49.038;8.372;2024-02-04T01:49:14;3.07;;;2.73;;
12433;SDS011;6281;49.038;8.372;2024-02-04T01:51:41;3.83;;;2.77;;
12433;SDS011;6281;49.038;8.372;2024-02-04T01:54:08;3.73;;;2.83;;
12433;SDS011;6281;49.038;8.372;2024-02-04T02:22:55;3.80;;;2.70;;
12433;SDS011;6281;49.038;8.372;2024-02-04T02:25:27;3.77;;;3.07;;
12433;SDS011;6281;49.038;8.372;2024-02-04T02:27:56;4.23;;;3.23;;
12433;SDS011;6281;49.038;8.372;2024-02-04T02:30:23;3.00;;;1.83;;
12433;SDS011;6281;49.038;8.372;2024-02-04T02:32:50;4.27;;;2.63;;
12433;SDS011;6281;49.038;8.372;2024-02-04T02:35:17;3.00;;;2.70;;
12433;SDS011;6281;49.038;8.372;2024-02-04T02:37:47;3.37;;;2.73;;
12433;SDS011;6281;49.038;8.372;2024-02-04T02:40:21;4.43;;;2.50;;
12433;SDS011;6281;49.038;8.372;2024-02-04T02:42:54;2.77;;;2.00;;
12433;SDS011;6281;49.038;8.372;2024-02-04T02:45:23;2.67;;;2.30;;
12433;SDS011;6281;49.038;8.372;2024-02-04T02:47:51;3.53;;;2.30;;
12433;SDS011;6281;49.038;8.372;2024-02-04T02:50:20;3.73;;;2.93;;
12433;SDS011;6281;49.038;8.372;2024-02-04T02:52:47;2.50;;;2.23;;
12433;SDS011;6281;49.038;8.372;2024-02-04T02:55:14;3.83;;;2.70;;
12433;SDS011;6281;49.038;8.372;2024-02-04T02:57:40;3.50;;;2.77;;
12433;SDS011;6281;49.038;8.372;2024-02-04T03:00:09;2.93;;;2.40;;
12433;SDS011;6281;49.038;8.372;2024-02-04T03:02:37;4.07;;;2.83;;
12433;SDS011;6281;49.038;8.372;2024-02-04T03:05:04;2.60;;;2.23;;
12433;SDS011;6281;49.038;8.372;2024-02-04T03:07:31;3.03;;;2.00;;
12433;SDS011;6281;49.038;8.372;2024-02-04T03:09:58;2.87;;;2.23;;
12433;SDS011;6281;49.038;8.372;2024-02-04T03:12:25;4.83;;;3.07;;
12433;SDS011;6281;49.038;8.372;2024-02-04T03:14:51;2.77;;;2.33;;
12433;SDS011;6281;49.038;8.372;2024-02-04T03:17:19;2.47;;;1.80;;
12433;SDS011;6281;49.038;8.372;2024-02-04T03:19:47;3.23;;;2.20;;
12433;SDS011;6281;49.038;8.372;2024-02-04T03:22:16;3.33;;;2.90;;
12433;SDS011;6281;49.038;8.372;2024-02-04T03:24:43;4.00;;;3.07;;
12433;SDS011;6281;49.038;8.372;2024-02-04T03:27:10;3.30;;;2.57;;
12433;SDS011;6281;49.038;8.372;2024-02-04T03:29:37;2.37;;;2.17;;
12433;SDS011;6281;49.038;8.372;2024-02-04T03:32:04;3.00;;;2.63;;
12433;SDS011;6281;49.038;8.372;2024-02-04T03:34:33;3.67;;;2.80;;
12433;SDS011;6281;49.038;8.372;2024-02-04T03:37:00;3.27;;;2.70;;
12433;SDS011;6281;49.038;8.372;2024-02-04T03:39:27;3.30;;;2.57;;
12433;SDS011;6281;49.038;8.372;2024-02-04T03:41:54;3.30;;;2.07;;
12433;SDS011;6281;49.038;8.372;2024-02-04T03:44:21;3.53;;;2.70;;
12433;SDS011;6281;49.038;8.372;2024-02-04T03:46:48;2.47;;;1.83;;
12433;SDS011;6281;49.038;8.372;2024-02-04T03:49:15;5.73;;;2.80;;
12433;SDS011;6281;49.038;8.372;2024-02-04T03:51:43;2.67;;;2.20;;
12433;SDS011;6281;49.038;8.372;2024-02-04T03:54:11;3.43;;;2.87;;
12433;SDS011;6281;49.038;8.372;2024-02-04T03:56:40;2.87;;;2.43;;
12433;SDS011;6281;49.038;8.372;2024-02-04T03:59:08;3.00;;;2.47;;
12433;SDS011;6281;49.038;8.372;2024-02-04T04:01:36;3.50;;;2.40;;
12433;SDS011;6281;49.038;8.372;2024-02-04T04:04:03;3.60;;;2.43;;
12433;SDS011;6281;49.038;8.372;2024-02-04T04:06:30;3.30;;;2.17;;
12433;SDS011;6281;49.038;8.372;2024-02-04T04:08:58;3.37;;;2.90;;
12433;SDS011;6281;49.038;8.372;2024-02-04T04:11:25;3.70;;;3.07;;
12433;SDS011;6281;49.038;8.372;2024-02-04T04:13:52;3.03;;;2.33;;
12433;SDS011;6281;49.038;8.372;2024-02-04T04:16:20;3.27;;;2.57;;
12433;SDS011;6281;49.038;8.372;2024-02-04T04:18:47;3.47;;;2.83;;
12433;SDS011;6281;49.038;8.372;2024-02-04T04:21:14;3.97;;;2.83;;
12433;SDS011;6281;49.038;8.372;2024-02-04T04:23:41;3.23;;;2.83;;
12433;SDS011;6281;49.038;8.372;2024-02-04T04:26:10;3.60;;;2.90;;
12433;SDS011;6281;49.038;8.372;2024-02-04T04:28:37;3.70;;;3.17;;
12433;SDS011;6281;49.038;8.372;2024-02-04T04:31:04;4.20;;;3.50;;
12433;SDS011;6281;49.038;8.372;2024-02-04T04:33:30;4.27;;;2.97;;
12433;SDS011;6281;49.038;8.372;2024-02-04T04:35:57;3.77;;;3.10;;
12433;SDS011;6281;49.038;8.372;2024-02-04T04:38:24;4.03;;;3.30;;
12433;SDS011;6281;49.038;8.372;2024-02-04T04:40:51;2.57;;;2.23;;
12433;SDS011;6281;49.038;8.372;2024-02-04T04:43:19;5.00;;;3.23;;
12433;SDS011;6281;49.038;8.372;2024-02-04T04:45:46;4.13;;;3.10;;
12433;SDS011;6281;49.038;8.372;2024-02-04T04:48:13;4.57;;;3.30;;
12433;SDS011;6281;49.038;8.372;2024-02-04T04:50:40;4.30;;;3.60;;
12433;SDS011;6281;49.038;8.372;2024-02-04T04:53:07;3.80;;;2.87;;
12433;SDS011;6281;49.038;8.372;2024-02-04T04:55:34;3.37;;;2.63;;
12433;SDS011;6281;49.038;8.372;2024-02-04T04:58:01;3.50;;;3.10;;
12433;SDS011;6281;49.038;8.372;2024-02-04T05:00:29;3.10;;;2.23;;
12433;SDS011;6281;49.038;8.372;2024-02-04T05:02:56;4.97;;;3.40;;
12433;SDS011;6281;49.038;8.372;2024-02-04T05:05:23;3.43;;;3.10;;
12433;SDS011;6281;49.038;8.372;2024-02-04T05:07:50;3.10;;;2.80;;
12433;SDS011;6281;49.038;8.372;2024-02-04T05:10:17;2.23;;;1.80;;
12433;SDS011;6281;49.038;8.372;2024-02-04T05:12:44;3.13;;;2.60;;
12433;SDS011;6281;49.038;8.372;2024-02-04T05:15:11;3.40;;;3.07;;
12433;SDS011;6281;49.038;8.372;2024-02-04T05:17:39;2.60;;;2.20;;
12433;SDS011;6281;49.038;8.372;2024-02-04T05:20:06;4.53;;;2.67;;
12433;SDS011;6281;49.038;8.372;2024-02-04T05:22:33;3.07;;;2.30;;
12433;SDS011;6281;49.038;8.372;2024-02-04T05:25:00;4.47;;;2.50;;
12433;SDS011;6281;49.038;8.372;2024-02-04T05:27:29;3.87;;;2.57;;
12433;SDS011;6281;49.038;8.372;2024-02-04T05:29:56;3.20;;;2.90;;
12433;SDS011;6281;49.038;8.372;2024-02-04T05:32:23;3.33;;;2.47;;
12433;SDS011;6281;49.038;8.372;2024-02-04T05:34:52;3.63;;;2.90;;
12433;SDS011;6281;49.038;8.372;2024-02-04T05:37:18;2.27;;;1.70;;
12433;SDS011;6281;49.038;8.372;2024-02-04T05:39:46;3.83;;;2.20;;
12433;SDS011;6281;49.038;8.372;2024-02-04T05:42:12;2.60;;;1.97;;
12433;SDS011;6281;49.038;8.372;2024-02-04T05:44:39;2.27;;;2.03;;
12433;SDS011;6281;49.038;8.372;2024-02-04T05:47:07;4.23;;;2.70;;
12433;SDS011;6281;49.038;8.372;2024-02-04T05:49:34;5.10;;;2.47;;
12433;SDS011;6281;49.038;8.372;2024-02-04T05:52:02;1.57;;;1.47;;
12433;SDS011;6281;49.038;8.372;2024-02-04T05:54:29;2.80;;;2.10;;
12433;SDS011;6281;49.038;8.372;2024-02-04T05:56:56;3.57;;;2.37;;
12433;SDS011;6281;49.038;8.372;2024-02-04T05:59:23;3.37;;;2.47;;
12433;SDS011;6281;49.038;8.372;2024-02-04T06:01:50;2.87;;;2.07;;
12433;SDS011;6281;49.038;8.372;2024-02-04T06:04:17;2.77;;;1.87;;
12433;SDS011;6281;49.038;8.372;2024-02-04T06:06:44;1.77;;;1.57;;
12433;SDS011;6281;49.038;8.372;2024-02-04T06:09:13;1.57;;;1.47;;
12433;SDS011;6281;49.038;8.372;2024-02-04T06:11:40;2.90;;;2.50;;
12433;SDS011;6281;49.038;8.372;2024-02-04T06:14:11;2.37;;;2.03;;
12433;SDS011;6281;49.038;8.372;2024-02-04T06:16:37;2.37;;;1.80;;
12433;SDS011;6281;49.038;8.372;2024-02-04T06:19:04;1.67;;;1.40;;
12433;SDS011;6281;49.038;8.372;2024-02-04T06:21:34;2.40;;;1.90;;
12433;SDS011;6281;49.038;8.372;2024-02-04T06:24:00;2.67;;;1.87;;
12433;SDS011;6281;49.038;8.372;2024-02-04T06:26:29;2.87;;;1.90;;
12433;SDS011;6281;49.038;8.372;2024-02-04T06:28:56;3.77;;;2.60;;
12433;SDS011;6281;49.038;8.372;2024-02-04T06:31:23;2.37;;;1.60;;
12433;SDS011;6281;49.038;8.372;2024-02-04T06:33:50;3.63;;;2.20;;
12433;SDS011;6281;49.038;8.372;2024-02-04T06:36:17;2.47;;;2.00;;
12433;SDS011;6281;49.038;8.372;2024-02-04T06:38:43;2.27;;;1.93;;
12433;SDS011;6281;49.038;8.372;2024-02-04T06:41:10;2.27;;;2.07;;
12433;SDS011;6281;49.038;8.372;2024-02-04T06:43:39;1.77;;;1.63;;
12433;SDS011;6281;49.038;8.372;2024-02-04T06:46:05;1.83;;;1.50;;
12433;SDS011;6281;49.038;8.372;2024-02-04T06:48:32;3.00;;;2.07;;
12433;SDS011;6281;49.038;8.372;2024-02-04T06:50:59;2.60;;;1.77;;
12433;SDS011;6281;49.038;8.372;2024-02-04T06:53:26;5.10;;;2.20;;
12433;SDS011;6281;49.038;8.372;2024-02-04T06:55:53;2.10;;;1.80;;
12433;SDS011;6281;49.038;8.372;2024-02-04T06:58:20;1.90;;;1.70;;
12433;SDS011;6281;49.038;8.372;2024-02-04T07:00:49;2.23;;;1.60;;
12433;SDS011;6281;49.038;8.372;2024-02-04T07:03:16;3.27;;;1.70;;
12433;SDS011;6281;49.038;8.372;2024-02-04T07:05:42;3.67;;;2.13;;
12433;SDS011;6281;49.038;8.372;2024-02-04T07:08:11;2.90;;;1.63;;
12433;SDS011;6281;49.038;8.372;2024-02-04T07:10:38;2.83;;;1.57;;
12433;SDS011;6281;49.038;8.372;2024-02-04T07:13:05;2.20;;;1.50;;
12433;SDS011;6281;49.038;8.372;2024-02-04T07:15:33;1.77;;;1.30;;
12433;SDS011;6281;49.038;8.372;2024-02-04T07:18:01;2.27;;;1.83;;
12433;SDS011;6281;49.038;8.372;2024-02-04T07:20:28;1.63;;;1.47;;
12433;SDS011;6281;49.038;8.372;2024-02-04T07:22:55;1.77;;;1.57;;
12433;SDS011;6281;49.038;8.372;2024-02-04T07:25:22;1.10;;;1.00;;
12433;SDS011;6281;49.038;8.372;2024-02-04T07:27:49;1.73;;;1.43;;
12433;SDS011;6281;49.038;8.372;2024-02-04T07:30:16;1.77;;;1.27;;
12433;SDS011;6281;49.038;8.372;2024-02-04T07:32:43;1.90;;;1.30;;
12433;SDS011;6281;49.038;8.372;2024-02-04T07:35:12;2.00;;;1.37;;
12433;SDS011;6281;49.038;8.372;2024-02-04T07:37:39;1.10;;;0.90;;
12433;SDS011;6281;49.038;8.372;2024-02-04T07:40:06;1.40;;;1.30;;
12433;SDS011;6281;49.038;8.372;2024-02-04T07:42:33;1.87;;;1.53;;
12433;SDS011;6281;49.038;8.372;2024-02-04T07:45:00;2.90;;;1.30;;
12433;SDS011;6281;49.038;8.372;2024-02-04T07:47:33;1.20;;;0.97;;
12433;SDS011;6281;49.038;8.372;2024-02-04T07:50:00;1.70;;;1.50;;
12433;SDS011;6281;49.038;8.372;2024-02-04T07:52:29;1.23;;;1.13;;
12433;SDS011;6281;49.038;8.372;2024-02-04T07:54:56;1.93;;;1.33;;
12433;SDS011;6281;49.038;8.372;2024-02-04T07:57:23;1.17;;;1.00;;
12433;SDS011;6281;49.038;8.372;2024-02-04T07:59:49;1.60;;;1.33;;
12433;SDS011;6281;49.038;8.372;2024-02-04T08:02:17;3.77;;;1.27;;
12433;SDS011;6281;49.038;8.372;2024-02-04T08:04:44;1.53;;;1.17;;
12433;SDS011;6281;49.038;8.372;2024-02-04T08:07:10;0.87;;;0.87;;
12433;SDS011;6281;49.038;8.372;2024-02-04T08:09:39;2.93;;;1.20;;
12433;SDS011;6281;49.038;8.372;2024-02-04T08:12:06;1.03;;;0.80;;
12433;SDS011;6281;49.038;8.372;2024-02-04T08:14:34;1.10;;;0.90;;
12433;SDS011;6281;49.038;8.372;2024-02-04T08:17:01;1.63;;;0.93;;
12433;SDS011;6281;49.038;8.372;2024-02-04T08:19:28;1.10;;;1.00;;
12433;SDS011;6281;49.038;8.372;2024-02-04T08:21:55;1.67;;;1.23;;
12433;SDS011;6281;49.038;8.372;2024-02-04T08:24:21;0.80;;;0.80;;
12433;SDS011;6281;49.038;8.372;2024-02-04T08:26:49;1.47;;;1.20;;
12433;SDS011;6281;49.038;8.372;2024-02-04T08:29:16;1.03;;;0.93;;
12433;SDS011;6281;49.038;8.372;2024-02-04T08:31:43;1.33;;;1.20;;
12433;SDS011;6281;49.038;8.372;2024-02-04T08:34:10;1.90;;;1.10;;
12433;SDS011;6281;49.038;8.372;2024-02-04T08:36:37;2.40;;;1.00;;
12433;SDS011;6281;49.038;8.372;2024-02-04T08:39:04;0.80;;;0.70;;
12433;SDS011;6281;49.038;8.372;2024-02-04T08:41:31;1.53;;;0.93;;
12433;SDS011;6281;49.038;8.372;2024-02-04T08:43:59;1.33;;;1.23;;
12433;SDS011;6281;49.038;8.372;2024-02-04T08:46:26;1.13;;;0.70;;
12433;SDS011;6281;49.038;8.372;2024-02-04T08:48:53;1.20;;;1.10;;
12433;SDS011;6281;49.038;8.372;2024-02-04T08:51:20;1.50;;;1.13;;
12433;SDS011;6281;49.038;8.372;2024-02-04T08:53:46;1.67;;;1.07;;
12433;SDS011;6281;49.038;8.372;2024-02-04T08:56:13;1.33;;;1.23;;
12433;SDS011;6281;49.038;8.372;2024-02-04T08:58:40;1.53;;;1.23;;
12433;SDS011;6281;49.038;8.372;2024-02-04T09:01:08;1.00;;;0.90;;
12433;SDS011;6281;49.038;8.372;2024-02-04T09:03:35;1.57;;;1.20;;
12433;SDS011;6281;49.038;8.372;2024-02-04T09:06:02;0.93;;;0.70;;
12433;SDS011;6281;49.038;8.372;2024-02-04T09:08:29;3.37;;;2.10;;
12433;SDS011;6281;49.038;8.372;2024-02-04T09:10:56;1.70;;;1.60;;
12433;SDS011;6281;49.038;8.372;2024-02-04T09:13:23;1.67;;;1.03;;
12433;SDS011;6281;49.038;8.372;2024-02-04T09:15:50;1.23;;;1.13;;
12433;SDS011;6281;49.038;8.372;2024-02-04T09:18:19;2.53;;;1.70;;
12433;SDS011;6281;49.038;8.372;2024-02-04T09:20:46;3.27;;;1.27;;
12433;SDS011;6281;49.038;8.372;2024-02-04T09:23:13;2.40;;;1.53;;
12433;SDS011;6281;49.038;8.372;2024-02-04T09:25:40;2.40;;;1.23;;
12433;SDS011;6281;49.038;8.372;2024-02-04T09:28:07;2.73;;;1.53;;
12433;SDS011;6281;49.038;8.372;2024-02-04T09:30:34;3.57;;;1.50;;
12433;SDS011;6281;49.038;8.372;2024-02-04T09:33:01;1.67;;;1.03;;
12433;SDS011;6281;49.038;8.372;2024-02-04T09:35:29;1.37;;;1.27;;
12433;SDS011;6281;49.038;8.372;2024-02-04T09:37:56;1.40;;;0.93;;
12433;SDS011;6281;49.038;8.372;2024-02-04T09:40:23;0.97;;;0.70;;
12433;SDS011;6281;49.038;8.372;2024-02-04T09:42:50;2.73;;;0.97;;
12433;SDS011;6281;49.038;8.372;2024-02-04T09:45:17;1.33;;;1.17;;
12433;SDS011;6281;49.038;8.372;2024-02-04T09:47:44;1.30;;;1.20;;
12433;SDS011;6281;49.038;8.372;2024-02-04T09:50:11;1.23;;;0.97;;
12433;SDS011;6281;49.038;8.372;2024-02-04T09:52:40;1.17;;;0.67;;
12433;SDS011;6281;49.038;8.372;2024-02-04T09:55:09;1.13;;;1.03;;
12433;SDS011;6281;49.038;8.372;2024-02-04T09:57:39;1.17;;;0.73;;
12433;SDS011;6281;49.038;8.372;2024-02-04T10:00:06;0.67;;;0.67;;
12433;SDS011;6281;49.038;8.372;2024-02-04T10:02:35;1.03;;;0.87;;
12433;SDS011;6281;49.038;8.372;2024-02-04T10:05:02;1.77;;;0.80;;
12433;SDS011;6281;49.038;8.372;2024-02-04T10:07:30;0.70;;;0.70;;
12433;SDS011;6281;49.038;8.372;2024-02-04T10:09:58;0.80;;;0.80;;
12433;SDS011;6281;49.038;8.372;2024-02-04T10:12:25;0.70;;;0.60;;
12433;SDS011;6281;49.038;8.372;2024-02-04T10:14:51;0.83;;;0.73;;
12433;SDS011;6281;49.038;8.372;2024-02-04T10:17:18;0.80;;;0.77;;
12433;SDS011;6281;49.038;8.372;2024-02-04T10:19:46;1.00;;;0.67;;
12433;SDS011;6281;49.038;8.372;2024-02-04T10:22:14;1.37;;;0.80;;
12433;SDS011;6281;49.038;8.372;2024-02-04T10:24:42;0.70;;;0.60;;
12433;SDS011;6281;49.038;8.372;2024-02-04T10:27:11;1.23;;;0.97;;
12433;SDS011;6281;49.038;8.372;2024-02-04T10:29:38;3.77;;;0.63;;
12433;SDS011;6281;49.038;8.372;2024-02-04T10:32:05;0.70;;;0.60;;
12433;SDS011;6281;49.038;8.372;2024-02-04T10:34:35;0.87;;;0.70;;
12433;SDS011;6281;49.038;8.372;2024-02-04T10:37:03;1.23;;;0.93;;
12433;SDS011;6281;49.038;8.372;2024-02-04T10:39:30;1.57;;;0.93;;
12433;SDS011;6281;49.038;8.372;2024-02-04T10:42:00;1.50;;;0.80;;
12433;SDS011;6281;49.038;8.372;2024-02-04T10:44:31;0.80;;;0.50;;
12433;SDS011;6281;49.038;8.372;2024-02-04T10:47:01;1.47;;;1.00;;
12433;SDS011;6281;49.038;8.372;2024-02-04T10:49:31;0.90;;;0.67;;
12433;SDS011;6281;49.038;8.372;2024-02-04T10:52:03;0.70;;;0.60;;
12433;SDS011;6281;49.038;8.372;2024-02-04T10:54:33;0.83;;;0.63;;
12433;SDS011;6281;49.038;8.372;2024-02-04T10:57:05;0.97;;;0.87;;
12433;SDS011;6281;49.038;8.372;2024-02-04T10:59:39;1.13;;;0.80;;
12433;SDS011;6281;49.038;8.372;2024-02-04T11:02:06;2.07;;;0.77;;
12433;SDS011;6281;49.038;8.372;2024-02-04T11:04:33;1.73;;;0.60;;
12433;SDS011;6281;49.038;8.372;2024-02-04T11:07:01;0.90;;;0.70;;
12433;SDS011;6281;49.038;8.372;2024-02-04T11:09:30;1.30;;;0.77;;
12433;SDS011;6281;49.038;8.372;2024-02-04T11:11:58;0.97;;;0.80;;
12433;SDS011;6281;49.038;8.372;2024-02-04T11:14:26;1.57;;;0.70;;
12433;SDS011;6281;49.038;8.372;2024-02-04T11:17:11;2.73;;;1.07;;
12433;SDS011;6281;49.038;8.372;2024-02-04T11:19:55;2.23;;;0.70;;
12433;SDS011;6281;49.038;8.372;2024-02-04T11:22:40;0.90;;;0.80;;
12433;SDS011;6281;49.038;8.372;2024-02-04T11:25:29;0.73;;;0.70;;
12433;SDS011;6281;49.038;8.372;2024-02-04T11:28:09;1.23;;;0.40;;
12433;SDS011;6281;49.038;8.372;2024-02-04T11:30:37;2.13;;;0.60;;
12433;SDS011;6281;49.038;8.372;2024-02-04T11:33:06;2.37;;;0.60;;
12433;SDS011;6281;49.038;8.372;2024-02-04T11:35:33;1.30;;;0.80;;
12433;SDS011;6281;49.038;8.372;2024-02-04T11:38:00;0.87;;;0.70;;
12433;SDS011;6281;49.038;8.372;2024-02-04T11:40:33;0.70;;;0.50;;
12433;SDS011;6281;49.038;8.372;2024-02-04T11:43:05;1.00;;;0.60;;
12433;SDS011;6281;49.038;8.372;2024-02-04T11:45:32;0.50;;;0.50;;
12433;SDS011;6281;49.038;8.372;2024-02-04T11:48:00;1.53;;;1.00;;
12433;SDS011;6281;49.038;8.372;2024-02-04T11:50:29;3.57;;;0.70;;
12433;SDS011;6281;49.038;8.372;2024-02-04T11:53:01;0.33;;;0.33;;
12433;SDS011;6281;49.038;8.372;2024-02-04T11:55:30;0.60;;;0.40;;
12433;SDS011;6281;49.038;8.372;2024-02-04T11:57:57;1.07;;;0.87;;
12433;SDS011;6281;49.038;8.372;2024-02-04T12:00:26;0.47;;;0.47;;
12433;SDS011;6281;49.038;8.372;2024-02-04T12:02:59;0.50;;;0.40;;
12433;SDS011;6281;49.038;8.372;2024-02-04T12:05:28;1.20;;;0.70;;
12433;SDS011;6281;49.038;8.372;2024-02-04T12:07:57;0.50;;;0.50;;
12433;SDS011;6281;49.038;8.372;2024-02-04T12:10:25;0.60;;;0.50;;
12433;SDS011;6281;49.038;8.372;2024-02-04T12:12:53;1.77;;;0.70;;
12433;SDS011;6281;49.038;8.372;2024-02-04T12:15:21;0.70;;;0.50;;
12433;SDS011;6281;49.038;8.372;2024-02-04T12:17:48;0.97;;;0.60;;
12433;SDS011;6281;49.038;8.372;2024-02-04T12:20:15;0.73;;;0.60;;
12433;SDS011;6281;49.038;8.372;2024-02-04T12:22:43;0.73;;;0.57;;
12433;SDS011;6281;49.038;8.372;2024-02-04T12:25:10;0.77;;;0.60;;
12433;SDS011;6281;49.038;8.372;2024-02-04T12:27:38;1.70;;;0.90;;
12433;SDS011;6281;49.038;8.372;2024-02-04T12:30:05;0.80;;;0.60;;
12433;SDS011;6281;49.038;8.372;2024-02-04T12:32:33;0.50;;;0.43;;
12433;SDS011;6281;49.038;8.372;2024-02-04T12:35:01;1.30;;;0.73;;
12433;SDS011;6281;49.038;8.372;2024-02-04T12:37:28;0.40;;;0.40;;
12433;SDS011;6281;49.038;8.372;2024-02-04T12:39:57;0.97;;;0.70;;
12433;SDS011;6281;49.038;8.372;2024-02-04T12:42:24;0.60;;;0.37;;
12433;SDS011;6281;49.038;8.372;2024-02-04T12:44:51;0.60;;;0.60;;
12433;SDS011;6281;49.038;8.372;2024-02-04T12:47:22;0.67;;;0.60;;
12433;SDS011;6281;49.038;8.372;2024-02-04T12:49:51;1.07;;;0.60;;
12433;SDS011;6281;49.038;8.372;2024-02-04T12:52:23;0.80;;;0.50;;
12433;SDS011;6281;49.038;8.372;2024-02-04T12:54:50;1.93;;;0.50;;
12433;SDS011;6281;49.038;8.372;2024-02-04T12:57:22;0.73;;;0.60;;
12433;SDS011;6281;49.038;8.372;2024-02-04T12:59:49;2.40;;;0.60;;
12433;SDS011;6281;49.038;8.372;2024-02-04T13:02:16;1.83;;;0.67;;
12433;SDS011;6281;49.038;8.372;2024-02-04T13:04:43;0.70;;;0.70;;
12433;SDS011;6281;49.038;8.372;2024-02-04T13:07:11;0.80;;;0.67;;
12433;SDS011;6281;49.038;8.372;2024-02-04T13:09:39;1.80;;;0.50;;
12433;SDS011;6281;49.038;8.372;2024-02-04T13:12:07;0.93;;;0.60;;
12433;SDS011;6281;49.038;8.372;2024-02-04T13:14:36;1.37;;;0.60;;
12433;SDS011;6281;49.038;8.372;2024-02-04T13:17:03;0.93;;;0.70;;
12433;SDS011;6281;49.038;8.372;2024-02-04T13:19:33;1.53;;;0.70;;
12433;SDS011;6281;49.038;8.372;2024-02-04T13:22:01;0.90;;;0.57;;
12433;SDS011;6281;49.038;8.372;2024-02-04T13:24:28;1.57;;;0.77;;
12433;SDS011;6281;49.038;8.372;2024-02-04T13:26:55;1.20;;;0.50;;
12433;SDS011;6281;49.038;8.372;2024-02-04T13:29:22;0.60;;;0.50;;
12433;SDS011;6281;49.038;8.372;2024-02-04T13:31:50;0.77;;;0.70;;
12433;SDS011;6281;49.038;8.372;2024-02-04T13:34:17;0.60;;;0.50;;
12433;SDS011;6281;49.038;8.372;2024-02-04T13:36:45;0.53;;;0.53;;
12433;SDS011;6281;49.038;8.372;2024-02-04T13:39:12;0.60;;;0.60;;
12433;SDS011;6281;49.038;8.372;2024-02-04T13:41:39;0.83;;;0.50;;
12433;SDS011;6281;49.038;8.372;2024-02-04T13:44:06;1.57;;;0.50;;
12433;SDS011;6281;49.038;8.372;2024-02-04T13:46:33;1.10;;;0.50;;
12433;SDS011;6281;49.038;8.372;2024-02-04T13:49:01;0.40;;;0.40;;
12433;SDS011;6281;49.038;8.372;2024-02-04T13:51:29;0.60;;;0.60;;
12433;SDS011;6281;49.038;8.372;2024-02-04T13:53:56;0.80;;;0.60;;
12433;SDS011;6281;49.038;8.372;2024-02-04T13:56:22;0.73;;;0.73;;
12433;SDS011;6281;49.038;8.372;2024-02-04T13:58:52;0.70;;;0.67;;
12433;SDS011;6281;49.038;8.372;2024-02-04T14:01:42;0.50;;;0.37;;
12433;SDS011;6281;49.038;8.372;2024-02-04T14:04:22;0.77;;;0.70;;
12433;SDS011;6281;49.038;8.372;2024-02-04T14:07:09;0.70;;;0.60;;
12433;SDS011;6281;49.038;8.372;2024-02-04T14:09:53;0.90;;;0.67;;
12433;SDS011;6281;49.038;8.372;2024-02-04T14:13:00;1.77;;;0.97;;
12433;SDS011;6281;49.038;8.372;2024-02-04T14:17:42;0.80;;;0.70;;
12433;SDS011;6281;49.038;8.372;2024-02-04T14:19:31;1.07;;;0.77;;
12433;SDS011;6281;49.038;8.372;2024-02-04T14:28:57;3.07;;;0.90;;
12433;SDS011;6281;49.038;8.372;2024-02-04T14:31:30;4.93;;;1.30;;
12433;SDS011;6281;49.038;8.372;2024-02-04T14:37:31;0.93;;;0.80;;
12433;SDS011;6281;49.038;8.372;2024-02-04T14:40:11;1.70;;;1.00;;
12433;SDS011;6281;49.038;8.372;2024-02-04T14:42:50;1.87;;;0.90;;
12433;SDS011;6281;49.038;8.372;2024-02-04T14:45:31;3.37;;;1.13;;
12433;SDS011;6281;49.038;8.372;2024-02-04T14:48:22;0.93;;;0.90;;
12433;SDS011;6281;49.038;8.372;2024-02-04T14:51:21;0.70;;;0.60;;
12433;SDS011;6281;49.038;8.372;2024-02-04T14:54:19;1.80;;;1.03;;
12433;SDS011;6281;49.038;8.372;2024-02-04T14:57:02;0.80;;;0.80;;
12433;SDS011;6281;49.038;8.372;2024-02-04T14:59:31;1.13;;;0.73;;
12433;SDS011;6281;49.038;8.372;2024-02-04T15:02:02;1.00;;;0.70;;
12433;SDS011;6281;49.038;8.372;2024-02-04T15:04:30;1.10;;;1.00;;
12433;SDS011;6281;49.038;8.372;2024-02-04T15:07:00;2.13;;;0.90;;
12433;SDS011;6281;49.038;8.372;2024-02-04T15:09:33;1.03;;;0.87;;
12433;SDS011;6281;49.038;8.372;2024-02-04T15:12:01;1.23;;;0.83;;
12433;SDS011;6281;49.038;8.372;2024-02-04T15:14:29;1.00;;;0.90;;
12433;SDS011;6281;49.038;8.372;2024-02-04T15:16:56;1.10;;;1.00;;
12433;SDS011;6281;49.038;8.372;2024-02-04T15:19:26;1.40;;;1.30;;
12433;SDS011;6281;49.038;8.372;2024-02-04T15:21:55;1.07;;;0.90;;
12433;SDS011;6281;49.038;8.372;2024-02-04T15:24:25;3.43;;;1.57;;
12433;SDS011;6281;49.038;8.372;2024-02-04T15:26:52;1.67;;;0.80;;
12433;SDS011;6281;49.038;8.372;2024-02-04T15:29:22;3.47;;;1.73;;
12433;SDS011;6281;49.038;8.372;2024-02-04T15:32:11;1.17;;;0.93;;
12433;SDS011;6281;49.038;8.372;2024-02-04T15:34:38;1.50;;;1.00;;
12433;SDS011;6281;49.038;8.372;2024-02-04T15:37:07;3.63;;;1.27;;
12433;SDS011;6281;49.038;8.372;2024-02-04T15:39:36;1.60;;;1.10;;
12433;SDS011;6281;49.038;8.372;2024-02-04T15:42:04;3.37;;;1.70;;
12433;SDS011;6281;49.038;8.372;2024-02-04T15:44:31;4.97;;;2.50;;
12433;SDS011;6281;49.038;8.372;2024-02-04T15:46:59;1.17;;;0.93;;